Time;durP1;ratioP1;P1;durP2;ratioP2;P2;SDS_P1;SDS_P2;PMS_P1;PMS_P2;Temp;Humidity;BMP_temperature;BMP_pressure;BME280_temperature;BME280_humidity;BME280_pressure;Samples;Min_cycle;Max_cycle;Signal;HPM_P1;HPM_P2
2021/06/26 00:02:04;;;;;;;5.68;3.13;;;15.90;83.20;;;;;;6343287;22;20033;-88
2021/06/26 00:04:34;;;;;;;7.28;3.45;;;15.90;83.20;;;;;;6343481;22;20089;-85
2021/06/26 00:07:01;;;;;;;7.60;3.45;;;15.90;83.20;;;;;;6343915;22;20037;-85
2021/06/26 00:09:29;;;;;;;13.23;3.50;;;15.90;83.20;;;;;;6343916;22;20050;-85
2021/06/26 00:11:56;;;;;;;12.15;3.85;;;15.90;83.10;;;;;;6343233;22;20086;-87
2021/06/26 00:14:23;;;;;;;7.80;3.38;;;15.90;83.10;;;;;;6342878;22;20036;-87
2021/06/26 00:16:51;;;;;;;5.47;3.15;;;15.90;83.10;;;;;;6343284;22;20085;-85
2021/06/26 00:19:18;;;;;;;6.18;3.65;;;15.90;83.10;;;;;;6343299;22;20020;-87
2021/06/26 00:21:45;;;;;;;7.07;3.13;;;15.90;83.10;;;;;;6343454;22;20089;-86
2021/06/26 00:24:12;;;;;;;9.90;3.92;;;15.90;83.10;;;;;;6342972;22;20037;-88
2021/06/26 00:26:39;;;;;;;9.27;3.50;;;15.90;83.20;;;;;;6343356;22;20089;-87
2021/06/26 00:29:06;;;;;;;11.88;3.72;;;15.90;83.20;;;;;;6343026;22;20392;-85
2021/06/26 00:31:34;;;;;;;6.90;3.60;;;15.90;83.20;;;;;;6342812;22;20365;-86
2021/06/26 00:34:01;;;;;;;7.88;3.80;;;15.90;83.20;;;;;;6342933;22;20014;-84
2021/06/26 00:36:28;;;;;;;9.85;4.50;;;15.90;83.20;;;;;;6343073;22;20089;-88
2021/06/26 00:38:55;;;;;;;7.18;4.07;;;15.90;83.20;;;;;;6343445;22;20014;-86
2021/06/26 00:41:22;;;;;;;6.38;3.00;;;15.90;83.10;;;;;;6342955;22;20017;-88
2021/06/26 00:43:49;;;;;;;7.88;3.72;;;15.90;83.20;;;;;;6342886;22;20049;-89
2021/06/26 00:46:16;;;;;;;6.10;3.70;;;15.90;83.20;;;;;;6343086;22;20018;-87
2021/06/26 00:48:43;;;;;;;5.90;3.63;;;15.90;83.20;;;;;;6343060;22;20021;-86
2021/06/26 00:51:12;;;;;;;8.85;4.57;;;15.90;83.20;;;;;;6343496;22;20015;-89
2021/06/26 00:53:39;;;;;;;9.88;4.22;;;15.90;83.20;;;;;;6342950;22;20077;-85
2021/06/26 00:56:08;;;;;;;8.45;4.30;;;15.90;83.20;;;;;;6342757;22;20034;-87
2021/06/26 00:58:36;;;;;;;7.30;4.10;;;15.90;83.20;;;;;;6342573;22;20072;-86
2021/06/26 01:01:03;;;;;;;11.45;4.25;;;15.90;83.30;;;;;;6370179;22;20426;-89
2021/06/26 01:03:30;;;;;;;7.90;3.78;;;15.90;83.30;;;;;;6343332;22;20025;-89
2021/06/26 01:05:57;;;;;;;10.10;4.30;;;15.80;83.30;;;;;;6343011;22;20087;-90
2021/06/26 01:08:25;;;;;;;6.38;3.70;;;15.90;83.40;;;;;;6343008;22;20052;-84
2021/06/26 01:10:52;;;;;;;14.18;3.88;;;15.90;83.40;;;;;;6342944;22;20020;-85
2021/06/26 01:13:19;;;;;;;7.50;4.10;;;15.90;83.40;;;;;;6342882;22;20018;-85
2021/06/26 01:15:50;;;;;;;5.97;3.65;;;15.90;83.40;;;;;;6342971;22;20492;-87
2021/06/26 01:18:20;;;;;;;7.35;4.00;;;15.90;83.50;;;;;;6343904;22;20010;-85
2021/06/26 01:20:47;;;;;;;6.57;4.32;;;15.90;83.50;;;;;;6343438;22;20077;-89
2021/06/26 01:23:15;;;;;;;9.93;3.97;;;15.90;83.50;;;;;;6343052;22;20384;-89
2021/06/26 01:25:46;;;;;;;8.00;3.58;;;15.90;83.50;;;;;;6342691;22;20461;-87
2021/06/26 01:28:14;;;;;;;6.70;3.67;;;15.90;83.50;;;;;;6342572;22;20018;-87
2021/06/26 01:30:41;;;;;;;6.30;3.72;;;15.90;83.40;;;;;;6343234;22;20093;-87
2021/06/26 01:33:08;;;;;;;8.60;3.72;;;15.90;83.40;;;;;;6343407;22;20315;-88
2021/06/26 01:35:35;;;;;;;8.23;3.58;;;15.90;83.50;;;;;;6370412;22;20018;-90
2021/06/26 01:38:04;;;;;;;6.78;3.90;;;15.90;83.40;;;;;;6342781;22;20067;-86
2021/06/26 01:40:31;;;;;;;7.13;3.80;;;15.90;83.40;;;;;;6343538;22;20015;-86
2021/06/26 01:42:59;;;;;;;8.82;3.33;;;15.90;83.40;;;;;;6343013;22;20026;-85
2021/06/26 01:45:30;;;;;;;5.88;3.65;;;15.90;83.40;;;;;;6343709;22;20021;-88
2021/06/26 01:47:59;;;;;;;5.53;3.58;;;15.90;83.40;;;;;;6343068;22;20034;-86
2021/06/26 01:50:29;;;;;;;6.07;3.25;;;15.90;83.50;;;;;;6343163;22;20085;-86
2021/06/26 01:52:59;;;;;;;5.93;3.20;;;15.90;83.50;;;;;;6343309;22;20469;-88
2021/06/26 01:55:30;;;;;;;6.82;4.20;;;15.90;83.50;;;;;;6342396;22;20018;-89
2021/06/26 01:57:57;;;;;;;8.93;4.03;;;15.90;83.50;;;;;;6342862;22;20019;-87
2021/06/26 02:00:25;;;;;;;7.53;3.70;;;15.90;83.50;;;;;;6342496;22;20403;-86
2021/06/26 02:02:52;;;;;;;7.68;3.88;;;15.90;83.50;;;;;;6342825;22;20021;-87
2021/06/26 02:05:22;;;;;;;7.05;3.00;;;15.90;83.50;;;;;;6342494;22;20010;-88
2021/06/26 02:08:01;;;;;;;8.55;3.78;;;15.90;83.50;;;;;;6343108;22;20010;-87
2021/06/26 02:10:28;;;;;;;4.65;3.03;;;15.90;83.50;;;;;;6342186;22;20527;-89
2021/06/26 02:12:56;;;;;;;7.05;3.17;;;15.90;83.40;;;;;;6343104;22;20014;-86
2021/06/26 02:15:23;;;;;;;4.82;3.20;;;15.90;83.50;;;;;;6342417;22;20396;-90
2021/06/26 02:17:51;;;;;;;6.50;3.33;;;15.90;83.50;;;;;;6342753;22;20096;-89
2021/06/26 02:20:19;;;;;;;5.82;3.40;;;15.90;83.40;;;;;;6342682;22;20020;-89
2021/06/26 02:22:46;;;;;;;10.75;3.90;;;15.90;83.40;;;;;;6342180;22;20064;-87
2021/06/26 02:25:16;;;;;;;6.85;3.47;;;15.90;83.40;;;;;;6342235;22;20014;-88
2021/06/26 02:27:44;;;;;;;6.78;3.20;;;15.90;83.40;;;;;;6343601;22;20113;-87
2021/06/26 02:30:14;;;;;;;9.63;3.65;;;15.90;83.40;;;;;;6342555;22;20052;-87
2021/06/26 02:32:45;;;;;;;8.40;3.70;;;15.90;83.30;;;;;;6342398;22;20014;-87
2021/06/26 02:35:14;;;;;;;5.28;3.40;;;15.90;83.30;;;;;;6342954;22;20090;-86
2021/06/26 02:37:42;;;;;;;5.40;3.30;;;15.90;83.40;;;;;;6342448;22;20034;-85
2021/06/26 02:40:17;;;;;;;7.38;3.53;;;15.90;83.40;;;;;;6342315;22;20387;-87
2021/06/26 02:42:48;;;;;;;6.80;3.53;;;15.90;83.40;;;;;;6342060;22;20067;-85
2021/06/26 02:45:15;;;;;;;4.78;3.03;;;15.90;83.40;;;;;;6342386;22;20016;-87
2021/06/26 02:47:42;;;;;;;9.27;3.97;;;15.90;83.40;;;;;;6342072;22;20461;-88
2021/06/26 02:50:13;;;;;;;6.30;3.17;;;15.90;83.40;;;;;;6342491;22;20085;-86
2021/06/26 02:52:43;;;;;;;11.90;3.70;;;15.90;83.40;;;;;;6341803;22;20047;-87
2021/06/26 02:55:11;;;;;;;7.38;4.28;;;15.90;83.40;;;;;;6341810;22;20442;-88
2021/06/26 02:57:38;;;;;;;9.07;3.83;;;15.90;83.40;;;;;;6341679;22;20018;-85
2021/06/26 03:00:07;;;;;;;8.55;2.90;;;15.90;83.50;;;;;;6343720;22;20335;-86
2021/06/26 03:02:37;;;;;;;4.57;2.67;;;15.90;83.50;;;;;;6343589;22;20466;-85
2021/06/26 03:05:05;;;;;;;11.27;3.35;;;15.90;83.50;;;;;;6343621;22;20492;-85
2021/06/26 03:07:32;;;;;;;6.55;3.00;;;15.90;83.50;;;;;;6343311;22;20019;-85
2021/06/26 03:09:59;;;;;;;7.35;3.60;;;15.90;83.50;;;;;;6371395;22;20061;-87
2021/06/26 03:12:30;;;;;;;8.82;3.13;;;15.90;83.50;;;;;;6344390;22;20584;-87
2021/06/26 03:14:59;;;;;;;10.90;2.90;;;15.90;83.50;;;;;;6344033;22;20019;-87
2021/06/26 03:17:26;;;;;;;5.57;2.95;;;15.90;83.50;;;;;;6343918;22;20081;-88
2021/06/26 03:19:53;;;;;;;10.35;3.40;;;15.90;83.50;;;;;;6343576;22;20015;-88
2021/06/26 03:22:20;;;;;;;5.70;3.05;;;15.90;83.50;;;;;;6343811;22;20018;-88
2021/06/26 03:24:47;;;;;;;8.40;3.05;;;15.90;83.50;;;;;;6343359;22;20020;-85
2021/06/26 03:27:15;;;;;;;6.60;2.83;;;15.90;83.50;;;;;;6344034;22;20015;-87
2021/06/26 03:29:43;;;;;;;9.30;3.35;;;15.90;83.60;;;;;;6343399;22;20037;-86
2021/06/26 03:32:11;;;;;;;7.57;2.53;;;15.90;83.60;;;;;;6343583;22;20015;-86
2021/06/26 03:34:39;;;;;;;6.03;3.67;;;15.90;83.60;;;;;;6343704;22;20034;-85
2021/06/26 03:37:06;;;;;;;7.53;3.25;;;15.90;83.60;;;;;;6343099;22;20017;-87
2021/06/26 03:39:34;;;;;;;6.80;3.40;;;15.80;83.60;;;;;;6343281;22;20060;-85
2021/06/26 03:42:01;;;;;;;7.20;3.75;;;15.90;83.70;;;;;;6343361;22;20015;-85
2021/06/26 03:44:28;;;;;;;8.32;3.53;;;15.90;83.70;;;;;;6343276;22;20527;-86
2021/06/26 03:46:55;;;;;;;6.68;3.33;;;15.80;83.70;;;;;;6343259;22;20046;-85
2021/06/26 03:49:22;;;;;;;6.25;3.00;;;15.90;83.70;;;;;;6343202;22;20089;-85
2021/06/26 03:51:49;;;;;;;6.10;3.15;;;15.90;83.70;;;;;;6343088;22;20513;-86
2021/06/26 03:54:20;;;;;;;6.40;2.72;;;15.90;83.70;;;;;;6343401;22;20018;-88
2021/06/26 03:56:47;;;;;;;12.77;3.85;;;15.90;83.70;;;;;;6371602;22;20046;-84
2021/06/26 03:59:14;;;;;;;5.60;3.22;;;15.90;83.70;;;;;;6343025;22;20018;-87
2021/06/26 04:01:41;;;;;;;5.55;3.08;;;15.90;83.80;;;;;;6343455;22;20010;-85
2021/06/26 04:04:08;;;;;;;5.47;3.10;;;15.90;83.80;;;;;;6343261;22;20067;-85
2021/06/26 04:06:38;;;;;;;5.28;3.47;;;15.90;83.80;;;;;;6342810;22;20021;-87
2021/06/26 04:09:05;;;;;;;5.53;3.20;;;15.90;83.80;;;;;;6342989;22;20472;-88
2021/06/26 04:11:34;;;;;;;4.53;2.78;;;15.90;83.80;;;;;;6343136;22;20019;-85
2021/06/26 04:14:01;;;;;;;7.90;3.53;;;15.90;83.70;;;;;;6342945;22;20011;-85
2021/06/26 04:16:28;;;;;;;5.10;3.17;;;15.90;83.80;;;;;;6343153;22;20514;-88
2021/06/26 04:18:55;;;;;;;9.85;3.53;;;15.90;83.80;;;;;;6342902;22;20011;-86
2021/06/26 04:21:22;;;;;;;6.30;3.22;;;15.90;83.80;;;;;;6343021;22;20037;-87
2021/06/26 04:23:49;;;;;;;6.13;3.25;;;15.90;83.80;;;;;;6342827;22;20041;-86
2021/06/26 04:26:17;;;;;;;6.22;2.90;;;15.90;83.80;;;;;;6343413;22;20014;-85
2021/06/26 04:28:44;;;;;;;5.88;3.25;;;15.90;83.80;;;;;;6342840;22;20022;-86
2021/06/26 04:31:11;;;;;;;7.18;3.70;;;15.90;83.80;;;;;;6342998;22;20085;-86
2021/06/26 04:33:38;;;;;;;5.07;3.30;;;15.90;83.80;;;;;;6343084;22;20080;-87
2021/06/26 04:36:12;;;;;;;7.97;3.58;;;15.90;83.90;;;;;;6342747;22;20010;-86
2021/06/26 04:38:41;;;;;;;9.18;3.50;;;15.90;83.90;;;;;;6370368;22;20015;-87
2021/06/26 04:41:08;;;;;;;4.55;2.67;;;16.00;83.90;;;;;;6342861;22;20072;-87
2021/06/26 04:43:38;;;;;;;7.93;3.42;;;16.00;83.90;;;;;;6343207;22;20465;-86
2021/06/26 04:46:09;;;;;;;4.32;2.83;;;16.00;83.90;;;;;;6342724;22;20018;-89
2021/06/26 04:48:41;;;;;;;6.07;3.17;;;16.00;83.90;;;;;;6343038;22;20071;-87
2021/06/26 04:51:08;;;;;;;6.22;3.55;;;16.00;84.00;;;;;;6342798;22;20462;-85
2021/06/26 04:53:35;;;;;;;6.18;3.35;;;16.00;84.00;;;;;;6343045;22;20018;-87
2021/06/26 04:56:04;;;;;;;4.55;2.85;;;16.00;84.00;;;;;;6342855;22;20416;-85
2021/06/26 04:58:31;;;;;;;12.93;3.50;;;16.00;84.00;;;;;;6337361;22;20023;-88
2021/06/26 05:00:59;;;;;;;6.25;3.05;;;16.00;84.10;;;;;;6337126;22;20014;-87
2021/06/26 05:03:28;;;;;;;7.63;2.90;;;16.00;84.10;;;;;;6337110;22;20010;-87
2021/06/26 05:05:55;;;;;;;5.90;2.97;;;16.00;84.10;;;;;;6337936;22;20034;-87
2021/06/26 05:08:22;;;;;;;6.25;3.22;;;16.00;84.20;;;;;;6337362;22;20397;-87
2021/06/26 05:11:14;;;;;;;10.35;3.38;;;16.00;84.10;;;;;;6337428;22;20523;-87
2021/06/26 05:13:41;;;;;;;5.00;3.10;;;16.00;84.20;;;;;;6325972;22;20082;-87
2021/06/26 05:16:09;;;;;;;4.57;2.47;;;16.00;84.20;;;;;;6338976;22;20011;-86
2021/06/26 05:18:36;;;;;;;6.75;3.13;;;16.10;84.20;;;;;;6337467;22;20011;-86
2021/06/26 05:21:06;;;;;;;7.18;2.40;;;16.00;84.20;;;;;;6337329;22;20019;-88
2021/06/26 05:23:34;;;;;;;5.65;3.03;;;16.10;84.20;;;;;;6337048;22;20542;-86
2021/06/26 05:26:01;;;;;;;4.95;2.90;;;16.10;84.20;;;;;;6337507;22;20030;-87
2021/06/26 05:28:36;;;;;;;4.78;2.97;;;16.10;84.20;;;;;;6337286;22;20030;-87
2021/06/26 05:31:06;;;;;;;4.50;2.72;;;16.10;84.20;;;;;;6337319;22;20011;-89
2021/06/26 05:33:41;;;;;;;8.80;3.22;;;16.10;84.20;;;;;;6336910;22;20466;-87
2021/06/26 05:36:08;;;;;;;5.10;3.20;;;16.10;84.20;;;;;;6334973;22;20026;-85
2021/06/26 05:38:37;;;;;;;5.35;2.47;;;16.10;84.30;;;;;;6335737;22;20015;-87
2021/06/26 05:41:15;;;;;;;;;;;;;;;;;;;;;
2021/06/26 05:43:43;;;;;;;4.32;2.50;;;16.20;84.30;;;;;;6337916;22;20019;-87
2021/06/26 05:46:12;;;;;;;3.90;2.20;;;16.20;84.30;;;;;;6336334;22;20015;-86
2021/06/26 05:48:39;;;;;;;5.03;2.55;;;16.20;84.30;;;;;;6336073;22;20397;-86
2021/06/26 05:51:16;;;;;;;4.05;2.47;;;16.20;84.30;;;;;;6336496;22;20039;-88
2021/06/26 05:53:53;;;;;;;4.40;2.40;;;16.20;84.30;;;;;;6338125;22;20010;-87
2021/06/26 05:56:25;;;;;;;4.70;2.90;;;16.20;84.30;;;;;;6336047;22;20015;-87
2021/06/26 05:58:58;;;;;;;4.20;2.38;;;16.30;84.30;;;;;;6335657;22;20390;-86
2021/06/26 06:01:25;;;;;;;5.88;2.80;;;16.20;84.20;;;;;;6336248;22;20017;-87
2021/06/26 06:03:53;;;;;;;4.63;2.80;;;16.20;84.20;;;;;;6336386;22;20343;-89
2021/06/26 06:06:20;;;;;;;4.32;2.38;;;16.20;84.20;;;;;;6337981;22;20034;-87
2021/06/26 06:08:57;;;;;;;4.78;2.60;;;16.30;84.20;;;;;;6336184;22;20477;-87
2021/06/26 06:11:27;;;;;;;5.45;2.22;;;16.20;84.20;;;;;;6335962;22;20019;-87
2021/06/26 06:14:00;;;;;;;5.72;2.25;;;16.30;84.10;;;;;;6335617;22;20015;-87
2021/06/26 06:16:41;;;;;;;5.65;2.40;;;16.20;84.10;;;;;;6335564;22;20082;-89
2021/06/26 06:19:08;;;;;;;4.95;2.50;;;16.30;84.10;;;;;;6336003;22;20022;-88
2021/06/26 06:21:35;;;;;;;3.63;2.10;;;16.30;84.10;;;;;;6335361;22;20019;-86
2021/06/26 06:24:05;;;;;;;5.88;2.00;;;16.30;84.10;;;;;;6335639;22;20037;-87
2021/06/26 06:26:35;;;;;;;6.32;2.10;;;16.30;84.10;;;;;;6335775;22;20022;-85
2021/06/26 06:29:03;;;;;;;4.53;1.92;;;16.30;84.10;;;;;;6335526;22;20225;-88
2021/06/26 06:31:31;;;;;;;4.05;1.80;;;16.30;84.10;;;;;;6335217;22;20462;-85
2021/06/26 06:34:11;;;;;;;5.78;2.08;;;16.30;84.10;;;;;;6336660;22;20045;-85
2021/06/26 06:36:41;;;;;;;3.33;2.00;;;16.30;84.10;;;;;;6337481;22;20094;-86
2021/06/26 06:39:08;;;;;;;5.22;2.38;;;16.30;84.20;;;;;;6337846;22;20118;-87
2021/06/26 06:41:38;;;;;;;3.33;1.75;;;16.30;84.20;;;;;;6337325;22;20462;-87
2021/06/26 06:44:05;;;;;;;3.28;1.83;;;16.40;84.20;;;;;;6337032;22;20462;-85
2021/06/26 06:46:33;;;;;;;3.42;2.05;;;16.40;84.30;;;;;;6337174;22;20066;-86
2021/06/26 06:49:00;;;;;;;4.65;2.20;;;16.40;84.30;;;;;;6337288;22;20054;-86
2021/06/26 06:51:29;;;;;;;4.47;2.10;;;16.40;84.30;;;;;;6338046;22;20531;-87
2021/06/26 06:53:58;;;;;;;3.60;2.03;;;16.40;84.30;;;;;;6337728;22;20022;-86
2021/06/26 06:56:27;;;;;;;3.47;2.00;;;16.40;84.40;;;;;;6339255;22;20082;-87
2021/06/26 06:58:56;;;;;;;3.58;1.50;;;16.40;84.40;;;;;;6336460;22;20091;-87
2021/06/26 07:01:24;;;;;;;3.30;1.50;;;16.50;84.50;;;;;;6336817;22;20068;-86
2021/06/26 07:03:51;;;;;;;3.83;1.85;;;16.50;84.40;;;;;;6337716;22;20011;-86
2021/06/26 07:06:19;;;;;;;2.67;1.42;;;16.50;84.40;;;;;;6336880;22;20485;-86
2021/06/26 07:08:46;;;;;;;3.22;1.80;;;16.50;84.40;;;;;;6337176;22;20066;-86
2021/06/26 07:11:13;;;;;;;4.05;1.73;;;16.60;84.40;;;;;;6337726;22;20466;-86
2021/06/26 07:13:40;;;;;;;4.47;1.75;;;16.50;84.30;;;;;;6336547;22;20021;-88
2021/06/26 07:16:13;;;;;;;2.92;1.58;;;16.60;84.30;;;;;;6337019;22;20508;-85
2021/06/26 07:18:43;;;;;;;2.45;1.33;;;16.60;84.30;;;;;;6337109;22;20492;-86
2021/06/26 07:21:20;;;;;;;2.67;1.40;;;16.70;84.40;;;;;;6337304;22;20042;-87
2021/06/26 07:23:48;;;;;;;2.95;1.48;;;16.60;84.40;;;;;;6337216;22;20090;-86
2021/06/26 07:26:19;;;;;;;2.90;1.50;;;16.70;84.40;;;;;;6337361;22;20023;-86
2021/06/26 07:28:49;;;;;;;3.25;1.52;;;16.70;84.40;;;;;;6336442;22;20020;-86
2021/06/26 07:31:16;;;;;;;3.03;1.30;;;16.80;84.40;;;;;;6336869;22;20025;-86
2021/06/26 07:33:43;;;;;;;4.47;1.52;;;16.80;84.30;;;;;;6337478;22;20101;-88
2021/06/26 07:36:16;;;;;;;4.63;1.50;;;16.80;84.30;;;;;;6336513;22;20404;-87
2021/06/26 07:38:43;;;;;;;4.05;1.50;;;16.90;84.30;;;;;;6337143;22;20462;-86
2021/06/26 07:41:22;;;;;;;2.95;1.63;;;16.90;84.20;;;;;;6333839;22;20021;-86
2021/06/26 07:43:50;;;;;;;5.47;1.88;;;16.90;84.20;;;;;;6228447;22;20027;-86
2021/06/26 07:46:20;;;;;;;3.08;1.70;;;16.90;84.10;;;;;;6235560;23;20024;-87
2021/06/26 07:48:47;;;;;;;4.35;1.80;;;16.90;84.10;;;;;;6243030;23;20016;-87
2021/06/26 07:51:18;;;;;;;7.22;1.75;;;17.00;84.10;;;;;;6244236;23;20023;-88
2021/06/26 07:53:46;;;;;;;2.83;1.60;;;17.00;84.00;;;;;;6245494;22;20070;-87
2021/06/26 07:56:17;;;;;;;2.92;1.52;;;17.10;84.00;;;;;;6244308;23;20016;-87
2021/06/26 07:58:47;;;;;;;2.53;1.50;;;17.10;84.00;;;;;;6244196;23;20083;-88
2021/06/26 08:01:16;;;;;;;4.10;1.45;;;17.20;83.90;;;;;;6243373;23;20032;-87
2021/06/26 08:03:45;;;;;;;3.38;1.40;;;17.20;83.90;;;;;;6244687;23;20034;-89
2021/06/26 08:06:14;;;;;;;2.65;1.40;;;17.20;83.80;;;;;;6246131;22;20027;-88
2021/06/26 08:08:45;;;;;;;3.97;1.30;;;17.30;83.80;;;;;;6244728;23;20096;-87
2021/06/26 08:11:15;;;;;;;2.13;1.10;;;17.40;83.90;;;;;;6244944;23;20074;-86
2021/06/26 08:13:43;;;;;;;2.60;1.15;;;17.40;83.80;;;;;;6244642;23;20372;-87
2021/06/26 08:16:10;;;;;;;2.58;1.20;;;17.40;83.70;;;;;;6244808;23;20012;-86
2021/06/26 08:18:37;;;;;;;6.15;1.25;;;17.40;83.60;;;;;;6245226;23;20018;-87
2021/06/26 08:21:05;;;;;;;2.70;1.40;;;17.40;83.60;;;;;;6246200;22;20545;-86
2021/06/26 08:23:32;;;;;;;2.55;1.50;;;17.50;83.60;;;;;;6245130;23;20088;-87
2021/06/26 08:25:59;;;;;;;3.28;1.55;;;17.50;83.50;;;;;;6244405;23;20091;-86
2021/06/26 08:28:26;;;;;;;2.47;1.30;;;17.60;83.50;;;;;;6244938;23;20100;-87
2021/06/26 08:30:53;;;;;;;3.95;1.17;;;17.60;83.50;;;;;;6245117;23;20405;-86
2021/06/26 08:33:20;;;;;;;2.58;1.30;;;17.70;83.50;;;;;;6244663;23;20368;-86
2021/06/26 08:35:48;;;;;;;2.53;1.35;;;17.80;83.50;;;;;;6245077;23;20039;-86
2021/06/26 08:38:15;;;;;;;2.47;1.20;;;17.90;83.50;;;;;;6244540;23;20016;-86
2021/06/26 08:41:41;;;;;;;5.43;1.30;;;18.00;83.60;;;;;;6244219;23;20020;-87
2021/06/26 08:52:06;;;;;;;2.72;1.20;;;18.50;83.00;;;;;;6211559;22;20402;-88
2021/06/26 08:54:34;;;;;;;1.92;1.10;;;18.70;82.80;;;;;;6244925;23;20062;-87
2021/06/26 08:57:02;;;;;;;1.40;0.90;;;18.90;82.50;;;;;;6245058;22;20035;-88
2021/06/26 08:59:29;;;;;;;4.57;1.13;;;19.00;82.10;;;;;;6274984;22;20026;-88
2021/06/26 09:02:07;;;;;;;;;;;;;;;;;;;;;
2021/06/26 09:04:47;;;;;;;1.80;0.88;;;19.20;81.00;;;;;;6276394;22;20098;-89
2021/06/26 09:07:32;;;;;;;2.47;1.20;;;19.30;80.50;;;;;;6275206;22;20026;-88
2021/06/26 09:10:17;;;;;;;1.55;0.90;;;19.30;80.20;;;;;;6275804;22;20019;-88
2021/06/26 09:12:55;;;;;;;;;;;;;;;;;;;;;
2021/06/26 09:15:45;;;;;;;1.25;0.77;;;19.40;79.40;;;;;;6212619;23;20048;-87
2021/06/26 09:18:19;;;;;;;1.92;0.88;;;19.50;79.00;;;;;;6188175;23;20408;-88
2021/06/26 09:20:54;;;;;;;2.97;1.00;;;19.50;78.90;;;;;;6188489;23;20032;-88
2021/06/26 09:23:36;;;;;;;3.38;1.00;;;19.50;78.60;;;;;;6187895;23;20017;-87
2021/06/26 09:26:24;;;;;;;1.75;0.80;;;19.50;78.40;;;;;;6045826;23;20082;-87
2021/06/26 09:28:52;;;;;;;1.60;0.90;;;19.50;78.10;;;;;;6041722;23;20568;-86
2021/06/26 09:31:21;;;;;;;1.98;0.88;;;19.50;78.10;;;;;;6041896;23;20022;-88
2021/06/26 09:34:00;;;;;;;1.95;0.90;;;19.50;77.90;;;;;;6095868;23;20021;-87
2021/06/26 09:36:33;;;;;;;1.48;0.70;;;19.60;77.90;;;;;;6129840;23;20020;-85
2021/06/26 09:39:06;;;;;;;0.95;0.68;;;19.60;77.70;;;;;;6128261;23;20073;-87
2021/06/26 09:41:34;;;;;;;3.30;0.80;;;19.60;77.30;;;;;;6135345;22;20021;-86
2021/06/26 09:44:12;;;;;;;1.83;0.80;;;19.60;77.00;;;;;;6274886;22;20035;-86
2021/06/26 09:46:47;;;;;;;1.42;0.82;;;19.60;77.00;;;;;;6275274;22;20095;-86
2021/06/26 09:49:14;;;;;;;1.83;0.93;;;19.70;76.80;;;;;;6275206;22;20023;-85
2021/06/26 09:51:41;;;;;;;1.23;0.70;;;19.80;76.60;;;;;;6274510;22;20551;-88
2021/06/26 09:54:12;;;;;;;1.98;0.80;;;19.90;76.60;;;;;;6274542;22;20023;-87
2021/06/26 09:56:44;;;;;;;1.73;0.80;;;19.90;76.30;;;;;;6274750;22;20069;-86
2021/06/26 09:59:18;;;;;;;0.73;0.52;;;20.10;76.00;;;;;;6274555;22;20371;-87
2021/06/26 10:01:49;;;;;;;2.67;0.73;;;20.20;75.90;;;;;;6274889;22;20024;-89
2021/06/26 10:04:19;;;;;;;3.67;1.00;;;20.30;75.70;;;;;;6274361;22;20020;-87
2021/06/26 10:06:47;;;;;;;1.42;0.70;;;20.40;75.40;;;;;;6274867;22;20012;-86
2021/06/26 10:09:14;;;;;;;2.22;0.77;;;20.40;75.40;;;;;;6277284;22;20015;-86
2021/06/26 10:11:42;;;;;;;1.98;0.80;;;20.50;74.70;;;;;;6276441;22;20083;-88
2021/06/26 10:14:11;;;;;;;1.20;0.70;;;20.60;74.10;;;;;;6276462;22;20486;-87
2021/06/26 10:16:40;;;;;;;2.05;0.73;;;20.60;73.60;;;;;;6278430;22;20019;-87
2021/06/26 10:19:12;;;;;;;1.20;0.60;;;20.60;73.40;;;;;;6276871;22;20012;-87
2021/06/26 10:21:40;;;;;;;0.93;0.60;;;20.60;73.20;;;;;;6276949;22;20018;-87
2021/06/26 10:24:16;;;;;;;2.72;0.80;;;20.60;72.90;;;;;;6276706;22;20011;-85
2021/06/26 10:26:44;;;;;;;1.85;0.50;;;20.60;73.00;;;;;;6277037;22;20024;-87
2021/06/26 10:29:15;;;;;;;1.58;0.63;;;20.60;73.00;;;;;;6276735;22;20019;-89
2021/06/26 10:31:47;;;;;;;1.25;0.70;;;20.60;73.20;;;;;;6276679;22;20068;-85
2021/06/26 10:34:25;;;;;;;1.33;0.70;;;20.60;73.10;;;;;;6276568;22;20024;-87
2021/06/26 10:36:56;;;;;;;1.50;0.70;;;20.60;72.90;;;;;;6275996;22;20042;-86
2021/06/26 10:39:30;;;;;;;1.35;0.57;;;20.60;72.90;;;;;;6276462;22;20090;-86
2021/06/26 10:42:03;;;;;;;1.13;0.50;;;20.60;73.00;;;;;;6276513;22;20366;-86
2021/06/26 10:44:44;;;;;;;2.80;0.70;;;20.60;73.20;;;;;;6276621;22;20016;-87
2021/06/26 10:47:12;;;;;;;1.70;0.60;;;20.60;73.30;;;;;;6276124;22;20020;-86
2021/06/26 10:49:39;;;;;;;2.00;0.70;;;20.60;73.10;;;;;;6276455;22;20019;-87
2021/06/26 10:52:12;;;;;;;2.08;0.60;;;20.50;73.10;;;;;;6276138;22;20027;-86
2021/06/26 10:54:53;;;;;;;1.38;0.50;;;20.50;73.30;;;;;;6276431;22;20535;-85
2021/06/26 10:57:25;;;;;;;0.83;0.60;;;20.50;73.20;;;;;;6276389;22;20043;-86
2021/06/26 11:00:03;;;;;;;2.58;0.50;;;20.50;73.10;;;;;;6276130;22;20012;-87
2021/06/26 11:02:45;;;;;;;1.42;0.90;;;20.50;73.00;;;;;;6276558;22;20533;-86
2021/06/26 11:05:13;;;;;;;1.75;0.70;;;20.50;73.30;;;;;;6276547;22;20077;-88
2021/06/26 11:07:40;;;;;;;0.93;0.65;;;20.50;73.50;;;;;;6275860;22;20111;-86
2021/06/26 11:10:12;;;;;;;1.38;0.80;;;20.50;73.60;;;;;;6276318;22;20018;-87
2021/06/26 11:12:47;;;;;;;1.75;0.80;;;20.50;73.70;;;;;;6276032;22;20364;-87
2021/06/26 11:15:23;;;;;;;1.38;0.70;;;20.50;74.10;;;;;;6278044;22;20012;-87
2021/06/26 11:17:51;;;;;;;1.42;0.60;;;20.60;74.70;;;;;;6277724;22;20069;-87
2021/06/26 11:20:18;;;;;;;3.08;0.65;;;20.60;74.20;;;;;;6275338;22;20042;-86
2021/06/26 11:22:59;;;;;;;1.20;0.60;;;20.70;74.00;;;;;;6276434;22;20070;-86
2021/06/26 11:25:30;;;;;;;1.25;0.70;;;20.80;73.80;;;;;;6275920;22;20089;-86
2021/06/26 11:28:08;;;;;;;1.63;0.77;;;20.90;73.60;;;;;;6276336;22;20035;-86
2021/06/26 11:30:36;;;;;;;1.05;0.60;;;20.90;73.40;;;;;;6276120;22;20016;-87
2021/06/26 11:33:06;;;;;;;1.73;0.80;;;20.90;73.30;;;;;;6275971;22;20188;-87
2021/06/26 11:35:39;;;;;;;3.47;0.88;;;20.90;73.00;;;;;;6275566;22;20015;-87
2021/06/26 11:38:17;;;;;;;2.22;1.10;;;21.00;73.00;;;;;;6275868;22;20018;-86
2021/06/26 11:40:44;;;;;;;5.50;1.02;;;21.00;72.90;;;;;;6275672;22;20035;-86
2021/06/26 11:43:12;;;;;;;6.63;0.95;;;21.00;72.60;;;;;;6275747;22;20086;-86
2021/06/26 11:45:44;;;;;;;1.88;1.00;;;20.90;72.70;;;;;;6275564;22;20019;-86
2021/06/26 11:48:20;;;;;;;1.73;0.88;;;20.90;72.60;;;;;;6275610;22;20024;-85
2021/06/26 11:50:57;;;;;;;2.20;0.88;;;20.80;72.30;;;;;;6275247;22;20019;-86
2021/06/26 11:53:26;;;;;;;1.58;0.82;;;20.80;72.50;;;;;;6276210;22;20016;-85
2021/06/26 11:55:58;;;;;;;1.13;0.70;;;20.80;72.70;;;;;;6275506;22;20091;-84
2021/06/26 11:58:51;;;;;;;2.13;0.90;;;20.70;73.00;;;;;;6275704;22;20043;-84
2021/06/26 12:01:28;;;;;;;3.25;0.60;;;20.70;73.20;;;;;;6276877;22;20048;-87
2021/06/26 12:03:58;;;;;;;0.93;0.60;;;20.60;73.20;;;;;;6275550;22;20419;-85
2021/06/26 12:06:30;;;;;;;1.20;0.70;;;20.60;73.20;;;;;;6275717;22;20478;-86
2021/06/26 12:08:58;;;;;;;0.93;0.60;;;20.60;73.30;;;;;;6275984;22;20087;-85
2021/06/26 12:11:30;;;;;;;1.27;0.70;;;20.60;73.40;;;;;;6275646;22;20329;-87
2021/06/26 12:14:10;;;;;;;2.08;0.70;;;20.60;73.50;;;;;;6275509;22;20359;-88
2021/06/26 12:16:38;;;;;;;1.73;0.70;;;20.60;73.70;;;;;;6276029;22;20066;-88
2021/06/26 12:19:08;;;;;;;0.77;0.65;;;20.70;73.70;;;;;;6275656;22;20019;-86
2021/06/26 12:21:46;;;;;;;3.90;0.82;;;20.80;73.70;;;;;;6275377;22;20082;-87
2021/06/26 12:24:42;;;;;;;1.40;0.63;;;20.80;73.60;;;;;;6275918;22;20016;-85
2021/06/26 12:27:23;;;;;;;3.55;0.70;;;20.90;73.60;;;;;;6275224;22;20380;-86
2021/06/26 12:29:59;;;;;;;1.42;0.73;;;21.00;73.60;;;;;;6275239;22;20023;-85
2021/06/26 12:32:40;;;;;;;3.95;0.80;;;21.10;73.80;;;;;;6275071;22;20024;-88
2021/06/26 12:35:10;;;;;;;2.80;0.68;;;21.20;73.60;;;;;;6275619;22;20019;-87
2021/06/26 12:37:42;;;;;;;1.35;0.60;;;21.40;73.80;;;;;;6275469;22;20023;-86
2021/06/26 12:40:21;;;;;;;1.60;0.60;;;21.50;73.20;;;;;;6275460;22;20463;-86
2021/06/26 12:43:05;;;;;;;1.75;0.70;;;21.60;71.50;;;;;;6275103;22;20332;-87
2021/06/26 12:45:34;;;;;;;4.35;0.80;;;21.70;72.10;;;;;;6275285;22;20014;-89
2021/06/26 12:48:15;;;;;;;4.07;0.63;;;21.90;72.00;;;;;;6275088;22;20019;-87
2021/06/26 12:50:46;;;;;;;1.42;0.50;;;22.00;71.40;;;;;;6275018;22;20016;-88
2021/06/26 12:53:13;;;;;;;0.90;0.68;;;22.10;71.00;;;;;;6275251;22;20027;-86
2021/06/26 12:55:51;;;;;;;0.88;0.60;;;22.30;70.90;;;;;;6275175;22;20383;-88
2021/06/26 12:58:26;;;;;;;1.90;0.50;;;22.40;70.80;;;;;;6275090;22;20069;-88
2021/06/26 13:00:56;;;;;;;0.90;0.57;;;22.50;70.60;;;;;;6275302;22;20016;-87
2021/06/26 13:03:23;;;;;;;3.40;0.60;;;22.80;70.10;;;;;;6274556;22;20363;-86
2021/06/26 13:05:50;;;;;;;1.30;0.50;;;22.90;69.90;;;;;;6274846;22;20408;-89
2021/06/26 13:08:20;;;;;;;5.05;0.55;;;23.10;69.90;;;;;;6275211;22;20392;-87
2021/06/26 13:10:49;;;;;;;0.70;0.50;;;23.20;69.00;;;;;;6274973;22;20039;-88
2021/06/26 13:13:25;;;;;;;0.57;0.40;;;23.30;68.30;;;;;;6275111;22;20099;-86
2021/06/26 13:15:53;;;;;;;1.50;0.60;;;23.40;68.00;;;;;;6274279;22;20035;-86